createdAt,value
2022-07-26T00:01:32.175Z,67.46
2022-07-26T00:04:01.801Z,68.78
2022-07-26T00:06:30.353Z,71.02
2022-07-26T00:09:00.132Z,70.38
2022-07-26T00:11:28.848Z,70.79
2022-07-26T00:13:58.119Z,74.66
2022-07-26T00:16:29.880Z,79.71
2022-07-26T00:19:00.142Z,84.88
2022-07-26T00:21:28.034Z,90.18
2022-07-26T00:23:56.621Z,96.58
2022-07-26T00:26:26.545Z,100.00
2022-07-26T00:28:55.742Z,100.00
2022-07-26T00:31:24.315Z,100.00
2022-07-26T00:33:55.560Z,100.00
2022-07-26T00:36:24.207Z,100.00
2022-07-26T00:38:54.906Z,100.00
2022-07-26T00:41:24.015Z,100.00
2022-07-26T00:43:59.586Z,100.00
2022-07-26T00:46:29.146Z,100.00
2022-07-26T00:48:59.143Z,100.00
2022-07-26T00:51:27.722Z,100.00
2022-07-26T00:53:56.226Z,100.00
2022-07-26T00:56:27.710Z,100.00
2022-07-26T00:58:57.222Z,100.00
2022-07-26T01:01:25.954Z,100.00
2022-07-26T01:03:56.633Z,100.00
2022-07-26T01:06:28.519Z,100.00
2022-07-26T01:08:59.158Z,100.00
2022-07-26T01:11:28.880Z,100.00
2022-07-26T01:13:57.690Z,100.00
2022-07-26T01:16:26.457Z,100.00
2022-07-26T01:18:56.562Z,100.00
2022-07-26T01:21:30.973Z,100.00
2022-07-26T01:23:59.545Z,100.00
2022-07-26T01:26:30.317Z,100.00
2022-07-26T01:29:01.325Z,100.00
2022-07-26T01:31:29.481Z,100.00
2022-07-26T01:34:00.201Z,100.00
2022-07-26T01:36:31.445Z,100.00
2022-07-26T01:39:01.176Z,100.00
2022-07-26T01:41:38.029Z,100.00
2022-07-26T01:44:08.351Z,100.00
2022-07-26T01:46:38.706Z,100.00
2022-07-26T01:49:09.171Z,100.00
2022-07-26T01:51:39.523Z,100.00
2022-07-26T01:54:10.947Z,100.00
2022-07-26T01:56:40.753Z,100.00
2022-07-26T01:59:08.829Z,100.00
2022-07-26T02:01:40.284Z,100.00
2022-07-26T02:04:30.972Z,100.00
2022-07-26T02:07:00.218Z,100.00
2022-07-26T02:09:29.975Z,100.00
2022-07-26T02:12:04.483Z,100.00
2022-07-26T02:14:33.674Z,100.00
2022-07-26T02:17:02.538Z,100.00
2022-07-26T02:19:32.751Z,100.00
2022-07-26T02:22:02.179Z,100.00
2022-07-26T02:24:31.586Z,100.00
2022-07-26T02:27:02.441Z,100.00
2022-07-26T02:29:30.430Z,100.00
2022-07-26T02:32:00.685Z,100.00
2022-07-26T02:34:33.755Z,100.00
2022-07-26T02:37:16.076Z,100.00
2022-07-26T02:39:44.831Z,100.00
2022-07-26T02:42:14.762Z,100.00
2022-07-26T02:44:45.499Z,100.00
2022-07-26T02:47:13.573Z,100.00
2022-07-26T02:49:42.298Z,100.00
2022-07-26T02:52:10.191Z,100.00
2022-07-26T02:54:41.577Z,100.00
2022-07-26T02:57:13.762Z,100.00
2022-07-26T02:59:42.965Z,100.00
2022-07-26T03:02:10.974Z,100.00
2022-07-26T03:04:39.165Z,100.00
2022-07-26T03:07:08.651Z,100.00
2022-07-26T03:09:38.620Z,100.00
2022-07-26T03:12:09.120Z,100.00
2022-07-26T03:14:39.476Z,100.00
2022-07-26T03:17:09.346Z,100.00
2022-07-26T03:19:37.918Z,100.00
2022-07-26T03:22:07.166Z,100.00
2022-07-26T03:24:36.985Z,100.00
2022-07-26T03:27:05.449Z,100.00
2022-07-26T03:29:35.737Z,100.00
2022-07-26T03:32:03.907Z,100.00
2022-07-26T03:34:34.947Z,100.00
2022-07-26T03:37:04.902Z,100.00
2022-07-26T03:39:32.849Z,100.00
2022-07-26T03:42:03.426Z,100.00
2022-07-26T03:44:31.429Z,100.00
2022-07-26T03:47:00.871Z,100.00
2022-07-26T03:49:31.288Z,100.00
2022-07-26T03:52:00.116Z,100.00
2022-07-26T03:54:29.079Z,100.00
2022-07-26T03:56:56.623Z,100.00
2022-07-26T03:59:25.776Z,100.00
2022-07-26T04:01:53.810Z,100.00
2022-07-26T04:04:25.150Z,100.00
2022-07-26T04:06:53.829Z,100.00
2022-07-26T04:09:22.179Z,100.00
2022-07-26T04:11:52.400Z,100.00
2022-07-26T04:14:21.292Z,100.00
2022-07-26T04:16:49.354Z,100.00
2022-07-26T04:19:20.116Z,100.00
2022-07-26T04:21:51.481Z,100.00
2022-07-26T04:24:19.896Z,100.00
2022-07-26T04:26:53.861Z,100.00
2022-07-26T04:29:22.500Z,100.00
2022-07-26T04:31:50.899Z,100.00
2022-07-26T04:34:20.506Z,100.00
2022-07-26T04:36:52.486Z,100.00
2022-07-26T04:39:24.561Z,100.00
2022-07-26T04:41:54.397Z,100.00
2022-07-26T04:44:22.499Z,100.00
2022-07-26T04:46:50.903Z,100.00
2022-07-26T04:49:19.265Z,100.00
2022-07-26T04:51:47.788Z,100.00
2022-07-26T04:54:20.740Z,100.00
2022-07-26T04:56:48.862Z,100.00
2022-07-26T04:59:21.704Z,100.00
2022-07-26T05:01:50.767Z,100.00
2022-07-26T05:04:18.789Z,100.00
2022-07-26T05:06:47.371Z,100.00
2022-07-26T05:09:19.101Z,100.00
2022-07-26T05:11:47.189Z,100.00
2022-07-26T05:14:15.158Z,100.00
2022-07-26T05:16:45.153Z,100.00
2022-07-26T05:19:16.343Z,100.00
2022-07-26T05:21:44.496Z,100.00
2022-07-26T05:24:13.837Z,100.00
2022-07-26T05:26:45.099Z,100.00
2022-07-26T05:29:13.480Z,100.00
2022-07-26T05:31:41.805Z,100.00
2022-07-26T05:34:11.722Z,100.00
2022-07-26T05:36:40.530Z,100.00
2022-07-26T05:39:11.661Z,100.00
2022-07-26T05:41:46.518Z,100.00
2022-07-26T05:44:15.354Z,100.00
2022-07-26T05:46:44.888Z,100.00
2022-07-26T05:49:14.025Z,100.00
2022-07-26T05:51:43.997Z,100.00
2022-07-26T05:54:12.347Z,100.00
2022-07-26T05:56:41.699Z,100.00
2022-07-26T05:59:13.024Z,100.00
2022-07-26T06:01:41.301Z,100.00
2022-07-26T06:04:10.692Z,100.00
2022-07-26T06:06:41.735Z,100.00
2022-07-26T06:09:11.463Z,100.00
2022-07-26T06:11:40.921Z,100.00
2022-07-26T06:14:09.428Z,100.00
2022-07-26T06:16:40.389Z,100.00
2022-07-26T06:19:08.897Z,100.00
2022-07-26T06:21:52.066Z,100.00
2022-07-26T06:24:20.738Z,100.00
2022-07-26T06:26:54.735Z,100.00
2022-07-26T06:29:32.038Z,100.00
2022-07-26T06:32:04.035Z,100.00
2022-07-26T06:34:32.737Z,100.00
2022-07-26T06:37:01.457Z,100.00
2022-07-26T06:39:32.233Z,100.00
2022-07-26T06:42:03.981Z,100.00
2022-07-26T06:44:36.914Z,100.00
2022-07-26T06:47:08.343Z,100.00
2022-07-26T06:49:37.763Z,100.00
2022-07-26T06:52:06.848Z,100.00
2022-07-26T06:54:37.494Z,100.00
2022-07-26T06:57:07.419Z,100.00
2022-07-26T06:59:37.491Z,100.00
2022-07-26T07:02:08.695Z,100.00
2022-07-26T07:04:38.282Z,100.00
2022-07-26T07:07:09.152Z,100.00
2022-07-26T07:09:37.882Z,100.00
2022-07-26T07:12:10.303Z,100.00
2022-07-26T07:14:40.092Z,100.00
2022-07-26T07:17:12.997Z,100.00
2022-07-26T07:19:45.597Z,100.00
2022-07-26T07:22:13.968Z,100.00
2022-07-26T07:24:44.363Z,100.00
2022-07-26T07:27:16.940Z,100.00
2022-07-26T07:29:46.603Z,100.00
2022-07-26T07:32:18.696Z,100.00
2022-07-26T07:34:50.682Z,100.00
2022-07-26T07:37:20.112Z,100.00
2022-07-26T07:39:50.977Z,100.00
2022-07-26T07:42:22.021Z,100.00
2022-07-26T07:44:50.258Z,100.00
2022-07-26T07:47:19.748Z,100.00
2022-07-26T07:49:49.546Z,100.00
2022-07-26T07:52:19.478Z,100.00
2022-07-26T07:54:49.453Z,100.00
2022-07-26T07:57:20.226Z,100.00
2022-07-26T07:59:50.167Z,100.00
2022-07-26T08:02:20.540Z,100.00
2022-07-26T08:04:49.968Z,100.00
2022-07-26T08:07:19.057Z,100.00
2022-07-26T08:09:47.345Z,100.00
2022-07-26T08:12:15.631Z,100.00
2022-07-26T08:14:43.813Z,100.00
2022-07-26T08:17:14.719Z,100.00
2022-07-26T08:19:45.103Z,100.00
2022-07-26T08:22:14.604Z,100.00
2022-07-26T08:24:46.903Z,100.00
2022-07-26T08:27:16.346Z,100.00
2022-07-26T08:29:45.136Z,100.00
2022-07-26T08:32:15.408Z,100.00
2022-07-26T08:34:45.931Z,100.00
2022-07-26T08:37:17.429Z,100.00
2022-07-26T08:39:47.686Z,100.00
2022-07-26T08:42:23.047Z,100.00
2022-07-26T08:44:53.741Z,100.00
2022-07-26T08:47:37.758Z,100.00
2022-07-26T08:50:10.591Z,100.00
2022-07-26T08:52:41.158Z,100.00
2022-07-26T08:55:10.320Z,100.00
2022-07-26T08:57:38.375Z,100.00
2022-07-26T09:00:18.907Z,100.00
2022-07-26T09:02:48.021Z,100.00
2022-07-26T09:05:19.961Z,100.00
2022-07-26T09:07:49.252Z,100.00
2022-07-26T09:10:17.961Z,100.00
2022-07-26T09:12:56.249Z,100.00
2022-07-26T09:15:27.483Z,100.00
2022-07-26T09:17:58.084Z,100.00
2022-07-26T09:20:29.632Z,100.00
2022-07-26T09:23:07.701Z,100.00
2022-07-26T09:25:37.748Z,100.00
2022-07-26T09:28:23.318Z,100.00
2022-07-26T09:30:56.974Z,100.00
2022-07-26T09:33:26.715Z,100.00
2022-07-26T09:36:07.254Z,100.00
2022-07-26T09:38:41.365Z,100.00
2022-07-26T09:41:21.748Z,100.00
2022-07-26T09:43:54.112Z,100.00
2022-07-26T09:46:26.127Z,100.00
2022-07-26T09:49:11.623Z,100.00
2022-07-26T09:51:44.705Z,100.00
2022-07-26T09:54:20.002Z,100.00
2022-07-26T09:56:50.965Z,100.00
2022-07-26T09:59:22.556Z,100.00
2022-07-26T10:01:54.121Z,100.00
2022-07-26T10:04:22.945Z,100.00
2022-07-26T10:06:54.287Z,100.00
2022-07-26T10:09:23.875Z,100.00
2022-07-26T10:11:56.327Z,100.00
2022-07-26T10:14:46.356Z,100.00
2022-07-26T10:17:50.841Z,100.00
2022-07-26T10:20:44.532Z,100.00
2022-07-26T10:23:39.935Z,100.00
2022-07-26T10:26:13.163Z,98.78
2022-07-26T10:28:42.511Z,94.36
2022-07-26T10:31:31.170Z,94.51
2022-07-26T10:34:02.477Z,93.02
2022-07-26T10:36:36.428Z,93.72
2022-07-26T10:39:14.482Z,91.76
2022-07-26T10:41:46.239Z,91.90
2022-07-26T10:44:32.733Z,84.26
2022-07-26T10:47:19.463Z,87.78
2022-07-26T10:49:57.417Z,89.64
2022-07-26T10:52:29.495Z,78.68
2022-07-26T10:55:18.797Z,78.70
2022-07-26T10:57:49.253Z,82.54
2022-07-26T11:00:25.360Z,82.55
2022-07-26T11:02:56.972Z,81.13
2022-07-26T11:05:31.913Z,80.57
2022-07-26T11:08:08.754Z,80.44
2022-07-26T11:10:42.001Z,84.35
2022-07-26T11:13:16.753Z,85.06
2022-07-26T11:15:49.591Z,86.42
2022-07-26T11:18:25.002Z,85.90
2022-07-26T11:20:56.715Z,86.66
2022-07-26T11:23:31.316Z,83.03
2022-07-26T11:26:06.383Z,84.30
2022-07-26T11:28:59.911Z,81.51
2022-07-26T11:31:51.456Z,80.77
2022-07-26T11:34:28.186Z,82.52
2022-07-26T11:36:58.454Z,80.17
2022-07-26T11:39:29.709Z,83.49
2022-07-26T11:42:03.725Z,78.97
2022-07-26T11:44:33.247Z,81.77
2022-07-26T11:47:11.150Z,82.42
2022-07-26T11:50:13.048Z,85.02
2022-07-26T11:52:30.827Z,86.87
2022-07-26T11:54:58.946Z,87.94
2022-07-26T11:57:31.892Z,86.25
2022-07-26T12:00:03.332Z,94.54
2022-07-26T12:02:32.605Z,100.00
2022-07-26T12:05:18.453Z,100.00
2022-07-26T12:07:56.667Z,100.00
2022-07-26T12:10:25.414Z,100.00
2022-07-26T12:13:13.328Z,100.00
2022-07-26T12:15:49.178Z,100.00
2022-07-26T12:18:28.719Z,94.21
2022-07-26T12:21:13.107Z,90.40
2022-07-26T12:23:45.428Z,87.08
2022-07-26T12:26:23.294Z,85.93
2022-07-26T12:28:53.371Z,81.40
2022-07-26T12:31:26.770Z,74.14
2022-07-26T12:33:56.381Z,74.80
2022-07-26T12:36:28.035Z,72.35
2022-07-26T12:38:58.469Z,70.32
2022-07-26T12:41:36.185Z,70.14
2022-07-26T12:44:08.534Z,69.36
2022-07-26T12:46:39.113Z,68.00
2022-07-26T12:49:09.072Z,69.34
2022-07-26T12:51:38.133Z,70.01
2022-07-26T12:54:09.683Z,70.50
2022-07-26T12:56:37.897Z,70.67
2022-07-26T12:59:10.929Z,71.20
2022-07-26T13:01:46.452Z,71.67
2022-07-26T13:04:15.381Z,73.39
2022-07-26T13:06:46.312Z,73.97
2022-07-26T13:09:16.803Z,73.50
2022-07-26T13:11:45.070Z,70.31
2022-07-26T13:14:16.372Z,69.66
2022-07-26T13:16:44.999Z,68.07
2022-07-26T13:19:13.099Z,69.13
2022-07-26T13:21:43.043Z,69.37
2022-07-26T13:24:13.798Z,67.74
2022-07-26T13:26:44.339Z,67.17
2022-07-26T13:29:16.791Z,67.52
2022-07-26T13:31:45.844Z,69.70
2022-07-26T13:34:15.461Z,70.47
2022-07-26T13:36:44.824Z,71.34
2022-07-26T13:39:13.065Z,70.99
2022-07-26T13:41:42.397Z,71.44
2022-07-26T13:44:11.370Z,71.92
2022-07-26T13:46:44.351Z,71.92
2022-07-26T13:49:13.832Z,72.39
2022-07-26T13:52:01.220Z,71.27
2022-07-26T13:54:31.994Z,71.57
2022-07-26T13:57:03.172Z,72.45
2022-07-26T13:59:31.883Z,68.48
2022-07-26T14:02:04.734Z,66.97
2022-07-26T14:04:34.722Z,66.86
2022-07-26T14:07:03.290Z,67.43
2022-07-26T14:09:33.031Z,69.15
2022-07-26T14:12:01.134Z,69.05
2022-07-26T14:14:30.989Z,68.80
2022-07-26T14:16:59.774Z,68.37
2022-07-26T14:19:30.160Z,68.88
2022-07-26T14:22:00.094Z,69.72
2022-07-26T14:24:30.396Z,71.35
2022-07-26T14:27:02.811Z,72.63
2022-07-26T14:29:31.468Z,72.69
2022-07-26T14:32:00.294Z,72.78
2022-07-26T14:34:30.412Z,72.70
2022-07-26T14:36:58.268Z,73.31
2022-07-26T14:39:28.142Z,73.33
2022-07-26T14:41:57.844Z,74.19
2022-07-26T14:44:27.808Z,73.33
2022-07-26T14:46:56.791Z,74.17
2022-07-26T14:49:27.840Z,75.44
2022-07-26T14:51:58.932Z,76.06
2022-07-26T14:54:28.507Z,75.68
2022-07-26T14:56:57.460Z,73.44
2022-07-26T14:59:25.389Z,73.62
2022-07-26T15:01:54.175Z,74.19
2022-07-26T15:04:24.194Z,75.92
2022-07-26T15:06:52.213Z,76.82
2022-07-26T15:09:21.846Z,77.62
2022-07-26T15:11:52.112Z,80.07
2022-07-26T15:14:20.919Z,80.87
2022-07-26T15:16:51.617Z,83.71
2022-07-26T15:19:25.673Z,78.42
2022-07-26T15:21:55.644Z,75.67
2022-07-26T15:24:27.161Z,76.47
2022-07-26T15:26:55.678Z,75.10
2022-07-26T15:29:24.222Z,73.42
2022-07-26T15:31:52.335Z,75.13
2022-07-26T15:34:21.001Z,75.88
2022-07-26T15:36:49.957Z,74.57
2022-07-26T15:39:19.523Z,72.84
2022-07-26T15:41:50.067Z,72.48
2022-07-26T15:44:20.427Z,72.46
2022-07-26T15:46:50.222Z,70.98
2022-07-26T15:49:19.343Z,70.58
2022-07-26T15:51:49.163Z,69.90
2022-07-26T15:54:20.487Z,71.08
2022-07-26T15:56:51.524Z,70.34
2022-07-26T15:59:22.345Z,70.29
2022-07-26T16:01:51.288Z,69.50
2022-07-26T16:04:19.977Z,69.61
2022-07-26T16:06:48.097Z,68.72
2022-07-26T16:09:19.695Z,66.82
2022-07-26T16:11:49.889Z,66.44
2022-07-26T16:14:19.611Z,65.92
2022-07-26T16:16:48.701Z,64.26
2022-07-26T16:19:18.369Z,64.92
2022-07-26T16:21:46.665Z,65.45
2022-07-26T16:24:15.123Z,65.12
2022-07-26T16:26:46.966Z,65.91
2022-07-26T16:29:15.904Z,66.38
2022-07-26T16:31:47.519Z,66.74
2022-07-26T16:34:15.850Z,66.93
2022-07-26T16:36:44.586Z,67.49
2022-07-26T16:39:13.884Z,68.51
2022-07-26T16:41:43.553Z,69.19
2022-07-26T16:44:13.680Z,69.53
2022-07-26T16:46:41.915Z,70.23
2022-07-26T16:49:14.371Z,71.61
2022-07-26T16:51:45.381Z,73.06
2022-07-26T16:54:14.347Z,72.67
2022-07-26T16:56:43.099Z,72.19
2022-07-26T16:59:12.402Z,72.61
2022-07-26T17:01:41.995Z,73.11
2022-07-26T17:04:12.972Z,72.23
2022-07-26T17:06:41.758Z,71.25
2022-07-26T17:09:17.153Z,72.84
2022-07-26T17:11:45.658Z,74.23
2022-07-26T17:14:16.210Z,74.86
2022-07-26T17:16:44.194Z,75.14
2022-07-26T17:19:14.181Z,75.85
2022-07-26T17:21:43.194Z,75.33
2022-07-26T17:24:15.298Z,73.62
2022-07-26T17:26:43.283Z,74.19
2022-07-26T17:29:12.290Z,73.75
2022-07-26T17:31:42.157Z,74.00
2022-07-26T17:34:10.177Z,74.60
2022-07-26T17:36:40.644Z,74.60
2022-07-26T17:39:15.077Z,74.23
2022-07-26T17:41:49.056Z,76.32
2022-07-26T17:44:19.382Z,75.13
2022-07-26T17:46:47.726Z,76.18
2022-07-26T17:49:16.547Z,77.69
2022-07-26T17:51:48.683Z,77.32
2022-07-26T17:54:18.542Z,77.93
2022-07-26T17:56:46.905Z,78.63
2022-07-26T17:59:17.758Z,79.68
2022-07-26T18:01:50.464Z,80.63
2022-07-26T18:04:24.815Z,81.87
2022-07-26T18:06:55.962Z,83.34
2022-07-26T18:09:24.431Z,84.22
2022-07-26T18:11:54.315Z,85.77
2022-07-26T18:14:24.246Z,86.24
2022-07-26T18:16:53.979Z,86.67
2022-07-26T18:19:25.352Z,87.61
2022-07-26T18:21:55.270Z,88.07
2022-07-26T18:24:23.290Z,88.76
2022-07-26T18:26:51.656Z,89.32
2022-07-26T18:29:21.648Z,89.92
2022-07-26T18:31:58.537Z,91.37
2022-07-26T18:34:28.603Z,93.28
2022-07-26T18:37:00.847Z,94.43
2022-07-26T18:39:33.251Z,94.51
2022-07-26T18:42:02.245Z,94.97
2022-07-26T18:44:30.799Z,95.44
2022-07-26T18:46:58.956Z,95.48
2022-07-26T18:49:31.008Z,95.52
2022-07-26T18:52:08.755Z,95.96
2022-07-26T18:54:37.751Z,96.36
2022-07-26T18:57:06.906Z,97.05
2022-07-26T18:59:35.384Z,97.54
2022-07-26T19:02:05.613Z,97.70
2022-07-26T19:04:34.487Z,98.27
2022-07-26T19:07:05.510Z,99.62
2022-07-26T19:09:33.463Z,100.00
2022-07-26T19:12:01.695Z,100.00
2022-07-26T19:14:31.325Z,100.00
2022-07-26T19:16:59.347Z,100.00
2022-07-26T19:19:28.388Z,100.00
2022-07-26T19:21:57.747Z,100.00
2022-07-26T19:24:27.429Z,100.00
2022-07-26T19:26:55.904Z,100.00
2022-07-26T19:29:25.405Z,100.00
2022-07-26T19:31:55.519Z,100.00
2022-07-26T19:34:24.001Z,100.00
2022-07-26T19:36:52.889Z,100.00
2022-07-26T19:39:21.380Z,100.00
2022-07-26T19:41:51.628Z,100.00
2022-07-26T19:44:20.330Z,100.00
2022-07-26T19:46:53.026Z,100.00
2022-07-26T19:49:25.453Z,100.00
2022-07-26T19:51:54.244Z,100.00
2022-07-26T19:54:23.540Z,100.00
2022-07-26T19:56:55.093Z,100.00
2022-07-26T19:59:24.158Z,100.00
2022-07-26T20:01:55.328Z,100.00
2022-07-26T20:04:28.387Z,100.00
2022-07-26T20:06:57.013Z,100.00
2022-07-26T20:09:26.981Z,100.00
2022-07-26T20:11:58.556Z,100.00
2022-07-26T20:14:27.078Z,100.00
2022-07-26T20:16:58.296Z,100.00
2022-07-26T20:19:28.738Z,100.00
2022-07-26T20:21:56.708Z,100.00
2022-07-26T20:24:25.703Z,100.00
2022-07-26T20:26:56.054Z,100.00
2022-07-26T20:29:25.220Z,100.00
2022-07-26T20:31:53.736Z,100.00
2022-07-26T20:34:23.150Z,100.00
2022-07-26T20:36:53.825Z,100.00
2022-07-26T20:39:22.161Z,100.00
2022-07-26T20:41:51.899Z,100.00
2022-07-26T20:44:28.101Z,100.00
2022-07-26T20:46:56.523Z,100.00
2022-07-26T20:49:25.390Z,100.00
2022-07-26T20:51:53.569Z,100.00
2022-07-26T20:54:22.417Z,100.00
2022-07-26T20:56:50.854Z,100.00
2022-07-26T20:59:21.212Z,100.00
2022-07-26T21:01:50.594Z,100.00
2022-07-26T21:04:19.341Z,100.00
2022-07-26T21:06:49.037Z,100.00
2022-07-26T21:09:20.001Z,100.00
2022-07-26T21:11:48.109Z,100.00
2022-07-26T21:14:16.685Z,100.00
2022-07-26T21:16:45.690Z,100.00
2022-07-26T21:19:15.886Z,100.00
2022-07-26T21:21:45.472Z,100.00
2022-07-26T21:24:15.521Z,100.00
2022-07-26T21:26:44.641Z,100.00
2022-07-26T21:29:14.994Z,100.00
2022-07-26T21:31:43.789Z,100.00
2022-07-26T21:34:15.768Z,100.00
2022-07-26T21:36:44.872Z,100.00
2022-07-26T21:39:14.923Z,100.00
2022-07-26T21:41:43.778Z,100.00
2022-07-26T21:44:13.809Z,100.00
2022-07-26T21:46:42.658Z,100.00
2022-07-26T21:49:13.666Z,100.00
2022-07-26T21:51:45.772Z,100.00
2022-07-26T21:54:15.254Z,100.00
2022-07-26T21:56:46.423Z,100.00
2022-07-26T21:59:15.356Z,100.00
2022-07-26T22:01:45.185Z,100.00
2022-07-26T22:04:13.188Z,100.00
2022-07-26T22:06:45.305Z,100.00
2022-07-26T22:09:18.896Z,100.00
2022-07-26T22:11:47.665Z,100.00
2022-07-26T22:14:17.697Z,100.00
2022-07-26T22:16:47.550Z,100.00
2022-07-26T22:19:16.530Z,100.00
2022-07-26T22:21:47.832Z,100.00
2022-07-26T22:24:16.018Z,100.00
2022-07-26T22:26:44.103Z,100.00
2022-07-26T22:29:13.110Z,100.00
2022-07-26T22:31:42.100Z,100.00
2022-07-26T22:34:10.366Z,100.00
2022-07-26T22:36:42.187Z,100.00
2022-07-26T22:39:17.013Z,100.00
2022-07-26T22:42:12.538Z,100.00
2022-07-26T22:44:34.882Z,100.00
2022-07-26T22:47:03.445Z,100.00
2022-07-26T22:49:31.411Z,100.00
2022-07-26T22:51:59.418Z,100.00
2022-07-26T22:54:30.575Z,100.00
2022-07-26T22:57:00.067Z,100.00
2022-07-26T22:59:28.293Z,100.00
2022-07-26T23:01:57.538Z,100.00
2022-07-26T23:04:25.682Z,100.00
2022-07-26T23:06:55.841Z,100.00
2022-07-26T23:09:29.976Z,100.00
2022-07-26T23:12:00.658Z,100.00
2022-07-26T23:14:29.577Z,100.00
2022-07-26T23:16:58.455Z,100.00
2022-07-26T23:19:29.280Z,100.00
2022-07-26T23:21:58.894Z,100.00
2022-07-26T23:24:30.441Z,100.00
2022-07-26T23:27:00.987Z,100.00
2022-07-26T23:29:29.047Z,100.00
2022-07-26T23:31:57.159Z,100.00
2022-07-26T23:34:25.540Z,100.00
2022-07-26T23:36:55.598Z,100.00
2022-07-26T23:39:23.905Z,100.00
2022-07-26T23:41:53.470Z,100.00
2022-07-26T23:44:23.414Z,100.00
2022-07-26T23:46:53.344Z,100.00
2022-07-26T23:49:22.067Z,100.00
2022-07-26T23:51:52.271Z,100.00
2022-07-26T23:54:20.978Z,100.00
2022-07-26T23:56:49.967Z,100.00
2022-07-26T23:59:19.904Z,100.00
